Glen Arbor, MI (49636)

10:16 AM EDT on May 22, 2015 (GMT -0400)
Glen Arbor Estates | | Change Station
CLOSE
Current Station
Personal Weather Station
Location: Glen Arbor, MI
Elevation: 623 ft
Nearby Weather Stations

Elev 623 ft 44.89 °N, 85.99 °W | Updated 31 seconds ago

Clear
Clear
50.0 °F
Feels Like 50.0 °F
N
2.0
Wind Variable Wind from WSW
Gusts 3.0 mph

Today
High -- | Low -- °F
--% Chance of Precip.
Yesterday
High -- | Low -- °F
Precip. -- in
6:08 AM 9:13 PM
Waxing Crescent, 21% visible
Pressure 30.21 in
Visibility 10.0 miles
Clouds Clear
Dew Point 35 °F
Humidity 57%
Rainfall 0.00 in
Snow Depth Not available.
UV 5 out of 12
Pollen 9.20 out of 12
Air Quality Not available.
Flu Activity Local Activity
METAR KFKS 221355Z AUTO 31003KT 10SM CLR 12/M02 A3021 RMK AO2 T01151022

More Conditions Fewer Conditions

Pressure 30.21 in
Visibility 10.0 miles
Clouds Clear
Dew Point 35 °F
Humidity 57%
Rainfall 0.00 in
Snow Depth Not available.
UV 5 out of 12
Pollen 9.20 out of 12
Air Quality Not available.
Flu Activity Local Activity
METAR KFKS 221355Z AUTO 31003KT 10SM CLR 12/M02 A3021 RMK AO2 T01151022

More Conditions Fewer Conditions

Nowcast | as of 9:00 am EDT on May 22, 2015

At 10 am...clear. Temperature 45. Northwest winds 7 mph. At 12 PM...clear. Temperature 50. Northwest winds 8 mph. At 2 PM...clear. Temperature 51. North winds 7 mph. At 4 PM...clear. Temperature 52. Northwest winds 5 mph.

×

10-Day Weather Forecast

Almanac

Astronomy

May. 22, 2015 Rise Set
Actual Time
Civil Twilight
Nautical Twilight
Astronomical Twilight
Moon
Length of Visible Light
Length of Day
Tomorrow will be .
, % of the Moon is Illuminated

Today's Extremes

State Highs State Lows

Community

WunderPhotos

Upload Photos

1,823,225 photos uploaded!

WunderBlogs® & News

Nearby

Air Quality

  Air Quality AQ Index Pollutant
Not available.

Snow Depth

Station Depth Elevation

Earthquake Activity

City Distance Mag. Time & Date
Minimum magnitude displayed is 2.5.

Coastal Water Temperatures

Place Temperature

Stations

Nearby Weather Stations

Station Location Temp. Windchill Dew Point Humidity Wind Precip. Elev Updated Type